sensor_id;sensor_type;location;lat;lon;timestamp;P1;durP1;ratioP1;P2;durP2;ratioP2
13584;SDS011;6863;48.402;9.994;2024-01-10T00:00:39;25.53;;;20.67;;
13584;SDS011;6863;48.402;9.994;2024-01-10T00:03:04;29.53;;;21.90;;
13584;SDS011;6863;48.402;9.994;2024-01-10T00:05:30;29.83;;;22.02;;
13584;SDS011;6863;48.402;9.994;2024-01-10T00:07:55;27.33;;;20.90;;
13584;SDS011;6863;48.402;9.994;2024-01-10T00:10:21;26.38;;;20.92;;
13584;SDS011;6863;48.402;9.994;2024-01-10T00:12:47;24.47;;;19.43;;
13584;SDS011;6863;48.402;9.994;2024-01-10T00:15:12;25.67;;;20.73;;
13584;SDS011;6863;48.402;9.994;2024-01-10T00:17:39;26.13;;;21.25;;
13584;SDS011;6863;48.402;9.994;2024-01-10T00:20:06;27.48;;;22.02;;
13584;SDS011;6863;48.402;9.994;2024-01-10T00:22:32;31.80;;;25.80;;
13584;SDS011;6863;48.402;9.994;2024-01-10T00:24:58;35.23;;;27.60;;
13584;SDS011;6863;48.402;9.994;2024-01-10T00:27:23;36.55;;;27.80;;
13584;SDS011;6863;48.402;9.994;2024-01-10T00:29:49;35.95;;;27.35;;
13584;SDS011;6863;48.402;9.994;2024-01-10T00:32:16;38.03;;;28.57;;
13584;SDS011;6863;48.402;9.994;2024-01-10T00:34:42;38.50;;;28.08;;
13584;SDS011;6863;48.402;9.994;2024-01-10T00:37:07;36.72;;;27.02;;
13584;SDS011;6863;48.402;9.994;2024-01-10T00:39:33;33.47;;;27.00;;
13584;SDS011;6863;48.402;9.994;2024-01-10T00:41:59;37.50;;;27.77;;
13584;SDS011;6863;48.402;9.994;2024-01-10T00:44:24;38.73;;;29.33;;
13584;SDS011;6863;48.402;9.994;2024-01-10T00:46:50;36.90;;;29.03;;
13584;SDS011;6863;48.402;9.994;2024-01-10T00:49:15;36.13;;;27.57;;
13584;SDS011;6863;48.402;9.994;2024-01-10T00:51:41;34.60;;;27.42;;
13584;SDS011;6863;48.402;9.994;2024-01-10T00:54:06;35.88;;;27.65;;
13584;SDS011;6863;48.402;9.994;2024-01-10T00:56:32;35.75;;;27.58;;
13584;SDS011;6863;48.402;9.994;2024-01-10T00:58:57;36.25;;;27.95;;
13584;SDS011;6863;48.402;9.994;2024-01-10T01:01:23;37.75;;;28.02;;
13584;SDS011;6863;48.402;9.994;2024-01-10T01:03:49;35.95;;;28.10;;
13584;SDS011;6863;48.402;9.994;2024-01-10T01:06:15;36.03;;;28.03;;
13584;SDS011;6863;48.402;9.994;2024-01-10T01:08:41;36.23;;;27.60;;
13584;SDS011;6863;48.402;9.994;2024-01-10T01:11:06;33.07;;;26.40;;
13584;SDS011;6863;48.402;9.994;2024-01-10T01:13:32;37.10;;;28.63;;
13584;SDS011;6863;48.402;9.994;2024-01-10T01:15:57;37.50;;;29.83;;
13584;SDS011;6863;48.402;9.994;2024-01-10T01:18:23;38.60;;;29.57;;
13584;SDS011;6863;48.402;9.994;2024-01-10T01:20:48;36.67;;;29.63;;
13584;SDS011;6863;48.402;9.994;2024-01-10T01:23:15;39.78;;;30.65;;
13584;SDS011;6863;48.402;9.994;2024-01-10T01:25:41;39.17;;;31.37;;
13584;SDS011;6863;48.402;9.994;2024-01-10T01:28:07;38.33;;;29.67;;
13584;SDS011;6863;48.402;9.994;2024-01-10T01:30:33;37.95;;;29.42;;
13584;SDS011;6863;48.402;9.994;2024-01-10T01:32:58;37.90;;;28.77;;
13584;SDS011;6863;48.402;9.994;2024-01-10T01:35:24;37.72;;;29.08;;
13584;SDS011;6863;48.402;9.994;2024-01-10T01:37:49;36.17;;;27.87;;
13584;SDS011;6863;48.402;9.994;2024-01-10T01:40:17;35.17;;;28.20;;
13584;SDS011;6863;48.402;9.994;2024-01-10T01:42:44;36.10;;;27.50;;
13584;SDS011;6863;48.402;9.994;2024-01-10T01:45:10;36.88;;;28.90;;
13584;SDS011;6863;48.402;9.994;2024-01-10T01:47:36;39.15;;;29.17;;
13584;SDS011;6863;48.402;9.994;2024-01-10T01:50:03;38.15;;;28.45;;
13584;SDS011;6863;48.402;9.994;2024-01-10T01:52:30;34.38;;;27.42;;
13584;SDS011;6863;48.402;9.994;2024-01-10T01:54:56;35.28;;;27.77;;
13584;SDS011;6863;48.402;9.994;2024-01-10T01:57:22;34.03;;;27.33;;
13584;SDS011;6863;48.402;9.994;2024-01-10T01:59:48;33.22;;;26.02;;
13584;SDS011;6863;48.402;9.994;2024-01-10T02:02:14;34.63;;;26.35;;
13584;SDS011;6863;48.402;9.994;2024-01-10T02:04:42;32.22;;;25.30;;
13584;SDS011;6863;48.402;9.994;2024-01-10T02:07:07;32.33;;;25.65;;
13584;SDS011;6863;48.402;9.994;2024-01-10T02:09:33;31.30;;;25.47;;
13584;SDS011;6863;48.402;9.994;2024-01-10T02:11:58;31.30;;;25.60;;
13584;SDS011;6863;48.402;9.994;2024-01-10T02:14:24;34.47;;;25.50;;
13584;SDS011;6863;48.402;9.994;2024-01-10T02:16:50;30.33;;;24.50;;
13584;SDS011;6863;48.402;9.994;2024-01-10T02:21:44;29.63;;;23.30;;
13584;SDS011;6863;48.402;9.994;2024-01-10T02:24:09;29.40;;;23.77;;
13584;SDS011;6863;48.402;9.994;2024-01-10T02:26:35;29.47;;;23.50;;
13584;SDS011;6863;48.402;9.994;2024-01-10T02:29:01;29.70;;;23.80;;
13584;SDS011;6863;48.402;9.994;2024-01-10T02:31:26;28.43;;;22.90;;
13584;SDS011;6863;48.402;9.994;2024-01-10T02:33:52;25.85;;;21.80;;
13584;SDS011;6863;48.402;9.994;2024-01-10T02:36:18;28.17;;;21.95;;
13584;SDS011;6863;48.402;9.994;2024-01-10T02:38:43;26.40;;;22.20;;
13584;SDS011;6863;48.402;9.994;2024-01-10T02:41:09;27.73;;;22.03;;
13584;SDS011;6863;48.402;9.994;2024-01-10T02:43:34;28.47;;;23.13;;
13584;SDS011;6863;48.402;9.994;2024-01-10T02:46:00;29.33;;;22.50;;
13584;SDS011;6863;48.402;9.994;2024-01-10T02:48:25;26.07;;;20.47;;
13584;SDS011;6863;48.402;9.994;2024-01-10T02:50:51;25.93;;;21.37;;
13584;SDS011;6863;48.402;9.994;2024-01-10T02:53:16;31.85;;;22.55;;
13584;SDS011;6863;48.402;9.994;2024-01-10T02:55:43;25.75;;;21.30;;
13584;SDS011;6863;48.402;9.994;2024-01-10T02:58:08;25.65;;;20.70;;
13584;SDS011;6863;48.402;9.994;2024-01-10T03:00:34;24.92;;;21.13;;
13584;SDS011;6863;48.402;9.994;2024-01-10T03:02:59;26.10;;;21.58;;
13584;SDS011;6863;48.402;9.994;2024-01-10T03:05:25;24.87;;;20.63;;
13584;SDS011;6863;48.402;9.994;2024-01-10T03:07:51;25.80;;;21.53;;
13584;SDS011;6863;48.402;9.994;2024-01-10T03:10:16;25.43;;;21.17;;
13584;SDS011;6863;48.402;9.994;2024-01-10T03:12:42;26.53;;;21.17;;
13584;SDS011;6863;48.402;9.994;2024-01-10T03:15:07;25.10;;;20.97;;
13584;SDS011;6863;48.402;9.994;2024-01-10T03:17:33;26.33;;;21.33;;
13584;SDS011;6863;48.402;9.994;2024-01-10T03:20:00;26.92;;;21.10;;
13584;SDS011;6863;48.402;9.994;2024-01-10T03:22:27;27.60;;;20.90;;
13584;SDS011;6863;48.402;9.994;2024-01-10T03:24:54;27.98;;;21.60;;
13584;SDS011;6863;48.402;9.994;2024-01-10T03:27:19;26.93;;;21.13;;
13584;SDS011;6863;48.402;9.994;2024-01-10T03:29:45;26.80;;;20.98;;
13584;SDS011;6863;48.402;9.994;2024-01-10T03:32:10;27.65;;;21.83;;
13584;SDS011;6863;48.402;9.994;2024-01-10T03:34:36;27.88;;;22.17;;
13584;SDS011;6863;48.402;9.994;2024-01-10T03:37:01;27.33;;;22.30;;
13584;SDS011;6863;48.402;9.994;2024-01-10T03:39:27;27.87;;;21.57;;
13584;SDS011;6863;48.402;9.994;2024-01-10T03:41:53;26.47;;;21.73;;
13584;SDS011;6863;48.402;9.994;2024-01-10T03:44:18;27.57;;;21.60;;
13584;SDS011;6863;48.402;9.994;2024-01-10T03:46:44;27.87;;;22.10;;
13584;SDS011;6863;48.402;9.994;2024-01-10T03:49:09;27.75;;;22.30;;
13584;SDS011;6863;48.402;9.994;2024-01-10T03:51:35;25.55;;;21.63;;
13584;SDS011;6863;48.402;9.994;2024-01-10T03:54:01;26.40;;;21.90;;
13584;SDS011;6863;48.402;9.994;2024-01-10T03:56:26;28.23;;;21.90;;
13584;SDS011;6863;48.402;9.994;2024-01-10T03:58:52;28.37;;;22.27;;
13584;SDS011;6863;48.402;9.994;2024-01-10T04:01:21;26.07;;;21.43;;
13584;SDS011;6863;48.402;9.994;2024-01-10T04:03:47;29.48;;;22.17;;
13584;SDS011;6863;48.402;9.994;2024-01-10T04:06:13;26.90;;;21.63;;
13584;SDS011;6863;48.402;9.994;2024-01-10T04:08:39;28.37;;;21.70;;
13584;SDS011;6863;48.402;9.994;2024-01-10T04:11:04;29.50;;;22.77;;
13584;SDS011;6863;48.402;9.994;2024-01-10T04:13:30;27.52;;;22.23;;
13584;SDS011;6863;48.402;9.994;2024-01-10T04:15:55;27.58;;;21.65;;
13584;SDS011;6863;48.402;9.994;2024-01-10T04:18:21;28.63;;;22.15;;
13584;SDS011;6863;48.402;9.994;2024-01-10T04:20:47;28.60;;;22.70;;
13584;SDS011;6863;48.402;9.994;2024-01-10T04:23:14;25.02;;;20.80;;
13584;SDS011;6863;48.402;9.994;2024-01-10T04:25:39;26.53;;;22.00;;
13584;SDS011;6863;48.402;9.994;2024-01-10T04:28:05;28.00;;;21.80;;
13584;SDS011;6863;48.402;9.994;2024-01-10T04:30:31;27.55;;;22.55;;
13584;SDS011;6863;48.402;9.994;2024-01-10T04:32:56;28.63;;;21.73;;
13584;SDS011;6863;48.402;9.994;2024-01-10T04:35:23;26.80;;;22.20;;
13584;SDS011;6863;48.402;9.994;2024-01-10T04:37:48;26.77;;;21.40;;
13584;SDS011;6863;48.402;9.994;2024-01-10T04:40:14;29.30;;;22.50;;
13584;SDS011;6863;48.402;9.994;2024-01-10T04:42:39;26.92;;;21.42;;
13584;SDS011;6863;48.402;9.994;2024-01-10T04:45:05;27.20;;;21.77;;
13584;SDS011;6863;48.402;9.994;2024-01-10T04:47:32;26.42;;;21.30;;
13584;SDS011;6863;48.402;9.994;2024-01-10T04:49:58;30.23;;;22.88;;
13584;SDS011;6863;48.402;9.994;2024-01-10T04:52:23;33.40;;;24.70;;
13584;SDS011;6863;48.402;9.994;2024-01-10T04:54:49;30.88;;;24.55;;
13584;SDS011;6863;48.402;9.994;2024-01-10T04:57:14;31.40;;;24.58;;
13584;SDS011;6863;48.402;9.994;2024-01-10T04:59:41;29.33;;;24.00;;
13584;SDS011;6863;48.402;9.994;2024-01-10T05:02:06;30.98;;;23.73;;
13584;SDS011;6863;48.402;9.994;2024-01-10T05:04:32;32.87;;;24.97;;
13584;SDS011;6863;48.402;9.994;2024-01-10T05:06:58;30.33;;;24.50;;
13584;SDS011;6863;48.402;9.994;2024-01-10T05:09:23;32.42;;;25.42;;
13584;SDS011;6863;48.402;9.994;2024-01-10T05:11:49;35.85;;;26.27;;
13584;SDS011;6863;48.402;9.994;2024-01-10T05:14:16;37.72;;;28.33;;
13584;SDS011;6863;48.402;9.994;2024-01-10T05:16:44;35.45;;;28.63;;
13584;SDS011;6863;48.402;9.994;2024-01-10T05:19:10;35.22;;;26.77;;
13584;SDS011;6863;48.402;9.994;2024-01-10T05:21:36;33.22;;;27.13;;
13584;SDS011;6863;48.402;9.994;2024-01-10T05:24:01;35.88;;;26.70;;
13584;SDS011;6863;48.402;9.994;2024-01-10T05:26:28;39.10;;;30.15;;
13584;SDS011;6863;48.402;9.994;2024-01-10T05:28:54;35.53;;;27.90;;
13584;SDS011;6863;48.402;9.994;2024-01-10T05:31:19;39.72;;;28.88;;
13584;SDS011;6863;48.402;9.994;2024-01-10T05:33:45;35.03;;;26.17;;
13584;SDS011;6863;48.402;9.994;2024-01-10T05:36:11;37.17;;;27.23;;
13584;SDS011;6863;48.402;9.994;2024-01-10T05:38:37;35.65;;;27.05;;
13584;SDS011;6863;48.402;9.994;2024-01-10T05:41:02;40.13;;;28.45;;
13584;SDS011;6863;48.402;9.994;2024-01-10T05:43:28;35.85;;;27.55;;
13584;SDS011;6863;48.402;9.994;2024-01-10T05:45:54;35.47;;;27.93;;
13584;SDS011;6863;48.402;9.994;2024-01-10T05:48:19;36.17;;;28.27;;
13584;SDS011;6863;48.402;9.994;2024-01-10T05:50:45;37.43;;;28.90;;
13584;SDS011;6863;48.402;9.994;2024-01-10T05:53:10;38.30;;;29.53;;
13584;SDS011;6863;48.402;9.994;2024-01-10T05:55:38;41.53;;;28.98;;
13584;SDS011;6863;48.402;9.994;2024-01-10T05:58:04;41.57;;;29.90;;
13584;SDS011;6863;48.402;9.994;2024-01-10T06:00:29;40.53;;;30.67;;
13584;SDS011;6863;48.402;9.994;2024-01-10T06:02:55;37.30;;;28.63;;
13584;SDS011;6863;48.402;9.994;2024-01-10T06:05:21;35.60;;;27.33;;
13584;SDS011;6863;48.402;9.994;2024-01-10T06:07:46;37.50;;;28.27;;
13584;SDS011;6863;48.402;9.994;2024-01-10T06:10:12;43.92;;;32.10;;
13584;SDS011;6863;48.402;9.994;2024-01-10T06:12:37;37.20;;;28.27;;
13584;SDS011;6863;48.402;9.994;2024-01-10T06:15:03;38.92;;;27.80;;
13584;SDS011;6863;48.402;9.994;2024-01-10T06:17:29;33.65;;;26.77;;
13584;SDS011;6863;48.402;9.994;2024-01-10T06:19:56;34.78;;;27.10;;
13584;SDS011;6863;48.402;9.994;2024-01-10T06:22:24;33.00;;;25.55;;
13584;SDS011;6863;48.402;9.994;2024-01-10T06:24:50;30.47;;;24.50;;
13584;SDS011;6863;48.402;9.994;2024-01-10T06:27:16;33.00;;;25.23;;
13584;SDS011;6863;48.402;9.994;2024-01-10T06:29:43;29.63;;;24.25;;
13584;SDS011;6863;48.402;9.994;2024-01-10T06:32:10;35.38;;;26.10;;
13584;SDS011;6863;48.402;9.994;2024-01-10T06:34:36;32.45;;;25.15;;
13584;SDS011;6863;48.402;9.994;2024-01-10T06:37:02;34.20;;;25.45;;
13584;SDS011;6863;48.402;9.994;2024-01-10T06:39:28;32.37;;;24.93;;
13584;SDS011;6863;48.402;9.994;2024-01-10T06:41:53;31.80;;;24.77;;
13584;SDS011;6863;48.402;9.994;2024-01-10T06:44:19;34.63;;;26.98;;
13584;SDS011;6863;48.402;9.994;2024-01-10T06:46:45;31.35;;;24.65;;
13584;SDS011;6863;48.402;9.994;2024-01-10T06:49:20;32.70;;;25.10;;
13584;SDS011;6863;48.402;9.994;2024-01-10T06:51:46;32.50;;;24.50;;
13584;SDS011;6863;48.402;9.994;2024-01-10T06:54:12;33.08;;;25.13;;
13584;SDS011;6863;48.402;9.994;2024-01-10T06:56:38;30.15;;;24.08;;
13584;SDS011;6863;48.402;9.994;2024-01-10T06:59:04;32.90;;;25.10;;
13584;SDS011;6863;48.402;9.994;2024-01-10T07:01:30;33.00;;;25.37;;
13584;SDS011;6863;48.402;9.994;2024-01-10T07:03:55;34.23;;;25.73;;
13584;SDS011;6863;48.402;9.994;2024-01-10T07:06:21;34.00;;;25.05;;
13584;SDS011;6863;48.402;9.994;2024-01-10T07:08:48;34.20;;;24.67;;
13584;SDS011;6863;48.402;9.994;2024-01-10T07:11:14;31.55;;;25.73;;
13584;SDS011;6863;48.402;9.994;2024-01-10T07:13:43;30.15;;;23.00;;
13584;SDS011;6863;48.402;9.994;2024-01-10T07:16:08;32.17;;;23.73;;
13584;SDS011;6863;48.402;9.994;2024-01-10T07:18:34;33.75;;;24.65;;
13584;SDS011;6863;48.402;9.994;2024-01-10T07:21:00;27.83;;;23.90;;
13584;SDS011;6863;48.402;9.994;2024-01-10T07:23:26;30.90;;;23.70;;
13584;SDS011;6863;48.402;9.994;2024-01-10T07:25:51;31.27;;;24.30;;
13584;SDS011;6863;48.402;9.994;2024-01-10T07:28:17;30.45;;;24.20;;
13584;SDS011;6863;48.402;9.994;2024-01-10T07:30:44;29.83;;;23.60;;
13584;SDS011;6863;48.402;9.994;2024-01-10T07:33:10;29.67;;;22.77;;
13584;SDS011;6863;48.402;9.994;2024-01-10T07:35:36;31.35;;;24.90;;
13584;SDS011;6863;48.402;9.994;2024-01-10T07:38:03;30.03;;;24.23;;
13584;SDS011;6863;48.402;9.994;2024-01-10T07:40:35;31.52;;;24.15;;
13584;SDS011;6863;48.402;9.994;2024-01-10T07:43:01;32.20;;;24.50;;
13584;SDS011;6863;48.402;9.994;2024-01-10T07:45:27;31.30;;;24.88;;
13584;SDS011;6863;48.402;9.994;2024-01-10T07:47:52;34.77;;;26.20;;
13584;SDS011;6863;48.402;9.994;2024-01-10T07:50:19;30.10;;;24.10;;
13584;SDS011;6863;48.402;9.994;2024-01-10T07:52:45;31.52;;;25.33;;
13584;SDS011;6863;48.402;9.994;2024-01-10T07:55:11;31.08;;;25.48;;
13584;SDS011;6863;48.402;9.994;2024-01-10T07:57:37;32.75;;;25.80;;
13584;SDS011;6863;48.402;9.994;2024-01-10T08:00:03;33.97;;;26.58;;
13584;SDS011;6863;48.402;9.994;2024-01-10T08:02:30;33.05;;;26.77;;
13584;SDS011;6863;48.402;9.994;2024-01-10T08:04:59;35.47;;;28.30;;
13584;SDS011;6863;48.402;9.994;2024-01-10T08:07:30;34.38;;;26.98;;
13584;SDS011;6863;48.402;9.994;2024-01-10T08:09:59;33.00;;;26.50;;
13584;SDS011;6863;48.402;9.994;2024-01-10T08:12:25;31.90;;;26.47;;
13584;SDS011;6863;48.402;9.994;2024-01-10T08:14:51;32.53;;;27.33;;
13584;SDS011;6863;48.402;9.994;2024-01-10T08:17:16;33.07;;;27.50;;
13584;SDS011;6863;48.402;9.994;2024-01-10T08:19:42;34.43;;;27.10;;
13584;SDS011;6863;48.402;9.994;2024-01-10T08:22:07;35.20;;;27.90;;
13584;SDS011;6863;48.402;9.994;2024-01-10T08:24:33;36.13;;;28.15;;
13584;SDS011;6863;48.402;9.994;2024-01-10T08:26:59;34.17;;;28.17;;
13584;SDS011;6863;48.402;9.994;2024-01-10T08:29:24;41.30;;;32.13;;
13584;SDS011;6863;48.402;9.994;2024-01-10T08:31:55;35.65;;;28.35;;
13584;SDS011;6863;48.402;9.994;2024-01-10T08:34:21;35.25;;;27.80;;
13584;SDS011;6863;48.402;9.994;2024-01-10T08:36:47;33.75;;;27.10;;
13584;SDS011;6863;48.402;9.994;2024-01-10T08:39:15;33.67;;;27.00;;
13584;SDS011;6863;48.402;9.994;2024-01-10T08:41:41;37.40;;;28.48;;
13584;SDS011;6863;48.402;9.994;2024-01-10T08:44:09;35.60;;;27.50;;
13584;SDS011;6863;48.402;9.994;2024-01-10T08:46:38;35.90;;;27.48;;
13584;SDS011;6863;48.402;9.994;2024-01-10T08:49:03;36.45;;;26.52;;
13584;SDS011;6863;48.402;9.994;2024-01-10T08:51:29;37.47;;;27.13;;
13584;SDS011;6863;48.402;9.994;2024-01-10T08:53:55;34.13;;;26.00;;
13584;SDS011;6863;48.402;9.994;2024-01-10T08:56:21;32.85;;;26.10;;
13584;SDS011;6863;48.402;9.994;2024-01-10T08:58:47;33.35;;;26.50;;
13584;SDS011;6863;48.402;9.994;2024-01-10T09:01:13;32.20;;;25.97;;
13584;SDS011;6863;48.402;9.994;2024-01-10T09:03:38;32.43;;;27.30;;
13584;SDS011;6863;48.402;9.994;2024-01-10T09:06:04;34.57;;;27.07;;
13584;SDS011;6863;48.402;9.994;2024-01-10T09:08:32;32.50;;;26.60;;
13584;SDS011;6863;48.402;9.994;2024-01-10T09:10:58;32.20;;;26.48;;
13584;SDS011;6863;48.402;9.994;2024-01-10T09:13:24;30.87;;;25.73;;
13584;SDS011;6863;48.402;9.994;2024-01-10T09:15:49;32.33;;;26.20;;
13584;SDS011;6863;48.402;9.994;2024-01-10T09:18:15;32.35;;;25.63;;
13584;SDS011;6863;48.402;9.994;2024-01-10T09:20:41;36.50;;;28.77;;
13584;SDS011;6863;48.402;9.994;2024-01-10T09:23:07;39.40;;;29.45;;
13584;SDS011;6863;48.402;9.994;2024-01-10T09:25:32;40.40;;;29.58;;
13584;SDS011;6863;48.402;9.994;2024-01-10T09:27:58;38.83;;;30.77;;
13584;SDS011;6863;48.402;9.994;2024-01-10T09:30:24;42.20;;;30.73;;
13584;SDS011;6863;48.402;9.994;2024-01-10T09:32:49;40.88;;;32.47;;
13584;SDS011;6863;48.402;9.994;2024-01-10T09:35:15;37.00;;;30.23;;
13584;SDS011;6863;48.402;9.994;2024-01-10T09:37:40;41.17;;;32.95;;
13584;SDS011;6863;48.402;9.994;2024-01-10T09:40:06;41.83;;;32.35;;
13584;SDS011;6863;48.402;9.994;2024-01-10T09:42:33;39.22;;;31.85;;
13584;SDS011;6863;48.402;9.994;2024-01-10T09:45:00;38.28;;;31.50;;
13584;SDS011;6863;48.402;9.994;2024-01-10T09:47:28;42.45;;;31.77;;
13584;SDS011;6863;48.402;9.994;2024-01-10T09:49:56;41.90;;;31.38;;
13584;SDS011;6863;48.402;9.994;2024-01-10T09:52:26;42.47;;;32.10;;
13584;SDS011;6863;48.402;9.994;2024-01-10T09:54:55;40.75;;;30.80;;
13584;SDS011;6863;48.402;9.994;2024-01-10T09:57:24;41.85;;;31.10;;
13584;SDS011;6863;48.402;9.994;2024-01-10T09:59:51;41.70;;;32.22;;
13584;SDS011;6863;48.402;9.994;2024-01-10T10:02:22;44.95;;;31.67;;
13584;SDS011;6863;48.402;9.994;2024-01-10T10:05:12;34.85;;;27.98;;
13584;SDS011;6863;48.402;9.994;2024-01-10T10:07:48;35.25;;;26.80;;
13584;SDS011;6863;48.402;9.994;2024-01-10T10:10:14;30.48;;;25.27;;
13584;SDS011;6863;48.402;9.994;2024-01-10T10:12:44;33.67;;;25.55;;
13584;SDS011;6863;48.402;9.994;2024-01-10T10:15:12;33.03;;;25.90;;
13584;SDS011;6863;48.402;9.994;2024-01-10T10:17:40;32.97;;;26.30;;
13584;SDS011;6863;48.402;9.994;2024-01-10T10:20:15;30.13;;;25.05;;
13584;SDS011;6863;48.402;9.994;2024-01-10T10:22:58;31.70;;;25.77;;
13584;SDS011;6863;48.402;9.994;2024-01-10T10:25:29;28.90;;;23.42;;
13584;SDS011;6863;48.402;9.994;2024-01-10T10:27:56;29.45;;;24.77;;
13584;SDS011;6863;48.402;9.994;2024-01-10T10:30:22;30.58;;;24.00;;
13584;SDS011;6863;48.402;9.994;2024-01-10T10:32:48;30.30;;;24.67;;
13584;SDS011;6863;48.402;9.994;2024-01-10T10:35:14;31.85;;;24.63;;
13584;SDS011;6863;48.402;9.994;2024-01-10T10:37:40;31.00;;;24.83;;
13584;SDS011;6863;48.402;9.994;2024-01-10T10:40:05;28.67;;;24.07;;
13584;SDS011;6863;48.402;9.994;2024-01-10T10:42:34;27.48;;;20.67;;
13584;SDS011;6863;48.402;9.994;2024-01-10T10:45:05;29.40;;;23.70;;
13584;SDS011;6863;48.402;9.994;2024-01-10T10:47:35;32.77;;;25.27;;
13584;SDS011;6863;48.402;9.994;2024-01-10T10:50:02;31.05;;;25.30;;
13584;SDS011;6863;48.402;9.994;2024-01-10T10:52:29;30.48;;;24.98;;
13584;SDS011;6863;48.402;9.994;2024-01-10T10:54:56;31.58;;;25.70;;
13584;SDS011;6863;48.402;9.994;2024-01-10T10:57:27;31.90;;;26.30;;
13584;SDS011;6863;48.402;9.994;2024-01-10T10:59:53;30.30;;;26.45;;
13584;SDS011;6863;48.402;9.994;2024-01-10T11:02:21;31.93;;;25.70;;
13584;SDS011;6863;48.402;9.994;2024-01-10T11:04:48;34.00;;;27.23;;
13584;SDS011;6863;48.402;9.994;2024-01-10T11:07:14;34.40;;;26.52;;
13584;SDS011;6863;48.402;9.994;2024-01-10T11:09:40;32.17;;;25.83;;
13584;SDS011;6863;48.402;9.994;2024-01-10T11:12:15;34.25;;;25.70;;
13584;SDS011;6863;48.402;9.994;2024-01-10T11:15:25;32.27;;;26.10;;
13584;SDS011;6863;48.402;9.994;2024-01-10T11:20:53;33.38;;;27.00;;
13584;SDS011;6863;48.402;9.994;2024-01-10T11:26:16;31.83;;;26.67;;
13584;SDS011;6863;48.402;9.994;2024-01-10T11:28:43;32.97;;;26.43;;
13584;SDS011;6863;48.402;9.994;2024-01-10T11:31:09;30.13;;;25.00;;
13584;SDS011;6863;48.402;9.994;2024-01-10T11:33:36;29.98;;;25.20;;
13584;SDS011;6863;48.402;9.994;2024-01-10T11:36:18;31.17;;;26.17;;
13584;SDS011;6863;48.402;9.994;2024-01-10T11:41:29;30.80;;;24.98;;
13584;SDS011;6863;48.402;9.994;2024-01-10T11:46:43;29.77;;;25.60;;
13584;SDS011;6863;48.402;9.994;2024-01-10T11:49:12;29.55;;;25.42;;
13584;SDS011;6863;48.402;9.994;2024-01-10T11:51:47;25.40;;;22.60;;
13584;SDS011;6863;48.402;9.994;2024-01-10T11:59:48;27.98;;;25.10;;
13584;SDS011;6863;48.402;9.994;2024-01-10T12:02:16;30.20;;;24.77;;
13584;SDS011;6863;48.402;9.994;2024-01-10T12:04:43;27.07;;;24.20;;
13584;SDS011;6863;48.402;9.994;2024-01-10T12:07:10;25.35;;;22.60;;
13584;SDS011;6863;48.402;9.994;2024-01-10T12:09:36;26.23;;;23.45;;
13584;SDS011;6863;48.402;9.994;2024-01-10T12:12:02;27.25;;;24.35;;
13584;SDS011;6863;48.402;9.994;2024-01-10T12:14:28;25.58;;;22.75;;
13584;SDS011;6863;48.402;9.994;2024-01-10T12:16:54;26.27;;;23.57;;
13584;SDS011;6863;48.402;9.994;2024-01-10T12:19:21;26.05;;;23.30;;
13584;SDS011;6863;48.402;9.994;2024-01-10T12:21:46;28.33;;;25.23;;
13584;SDS011;6863;48.402;9.994;2024-01-10T12:24:13;28.17;;;25.17;;
13584;SDS011;6863;48.402;9.994;2024-01-10T12:26:44;27.83;;;25.10;;
13584;SDS011;6863;48.402;9.994;2024-01-10T12:29:11;27.48;;;24.70;;
13584;SDS011;6863;48.402;9.994;2024-01-10T12:31:37;29.13;;;26.15;;
13584;SDS011;6863;48.402;9.994;2024-01-10T12:34:03;28.33;;;25.33;;
13584;SDS011;6863;48.402;9.994;2024-01-10T12:36:31;32.53;;;27.63;;
13584;SDS011;6863;48.402;9.994;2024-01-10T12:38:57;28.63;;;25.75;;
13584;SDS011;6863;48.402;9.994;2024-01-10T12:41:23;30.47;;;25.27;;
13584;SDS011;6863;48.402;9.994;2024-01-10T12:43:49;27.77;;;24.93;;
13584;SDS011;6863;48.402;9.994;2024-01-10T12:46:17;28.00;;;25.20;;
13584;SDS011;6863;48.402;9.994;2024-01-10T12:48:42;27.80;;;25.00;;
13584;SDS011;6863;48.402;9.994;2024-01-10T12:51:08;28.63;;;25.73;;
13584;SDS011;6863;48.402;9.994;2024-01-10T12:53:38;27.98;;;25.33;;
13584;SDS011;6863;48.402;9.994;2024-01-10T12:56:06;28.38;;;25.58;;
13584;SDS011;6863;48.402;9.994;2024-01-10T13:01:04;26.88;;;23.98;;
13584;SDS011;6863;48.402;9.994;2024-01-10T13:03:30;27.58;;;24.88;;
13584;SDS011;6863;48.402;9.994;2024-01-10T13:05:56;26.90;;;24.30;;
13584;SDS011;6863;48.402;9.994;2024-01-10T13:08:21;26.47;;;23.77;;
13584;SDS011;6863;48.402;9.994;2024-01-10T13:10:47;27.80;;;25.02;;
13584;SDS011;6863;48.402;9.994;2024-01-10T13:13:13;26.43;;;23.80;;
13584;SDS011;6863;48.402;9.994;2024-01-10T13:15:43;27.27;;;24.57;;
13584;SDS011;6863;48.402;9.994;2024-01-10T13:18:10;26.85;;;24.10;;
13584;SDS011;6863;48.402;9.994;2024-01-10T13:20:42;27.10;;;24.40;;
13584;SDS011;6863;48.402;9.994;2024-01-10T13:23:14;25.90;;;23.40;;
13584;SDS011;6863;48.402;9.994;2024-01-10T13:25:40;26.27;;;23.73;;
13584;SDS011;6863;48.402;9.994;2024-01-10T13:28:06;28.42;;;25.45;;
13584;SDS011;6863;48.402;9.994;2024-01-10T13:30:32;26.67;;;23.87;;
13584;SDS011;6863;48.402;9.994;2024-01-10T13:33:00;26.23;;;23.63;;
13584;SDS011;6863;48.402;9.994;2024-01-10T13:35:26;27.90;;;24.90;;
13584;SDS011;6863;48.402;9.994;2024-01-10T13:37:52;28.47;;;25.57;;
13584;SDS011;6863;48.402;9.994;2024-01-10T13:40:17;28.55;;;25.70;;
13584;SDS011;6863;48.402;9.994;2024-01-10T13:42:48;28.43;;;25.53;;
13584;SDS011;6863;48.402;9.994;2024-01-10T13:45:15;30.88;;;25.73;;
13584;SDS011;6863;48.402;9.994;2024-01-10T13:47:42;28.00;;;25.17;;
13584;SDS011;6863;48.402;9.994;2024-01-10T13:50:08;28.30;;;25.27;;
13584;SDS011;6863;48.402;9.994;2024-01-10T13:52:34;29.40;;;26.30;;
13584;SDS011;6863;48.402;9.994;2024-01-10T13:55:01;28.75;;;25.60;;
13584;SDS011;6863;48.402;9.994;2024-01-10T13:57:27;29.67;;;26.48;;
13584;SDS011;6863;48.402;9.994;2024-01-10T13:59:53;29.50;;;26.30;;
13584;SDS011;6863;48.402;9.994;2024-01-10T14:02:20;29.52;;;26.33;;
13584;SDS011;6863;48.402;9.994;2024-01-10T14:04:50;29.73;;;26.23;;
13584;SDS011;6863;48.402;9.994;2024-01-10T14:07:16;29.92;;;26.67;;
13584;SDS011;6863;48.402;9.994;2024-01-10T14:09:41;29.40;;;26.23;;
13584;SDS011;6863;48.402;9.994;2024-01-10T14:12:08;30.95;;;27.58;;
13584;SDS011;6863;48.402;9.994;2024-01-10T14:14:34;31.13;;;26.93;;
13584;SDS011;6863;48.402;9.994;2024-01-10T14:16:59;29.42;;;26.27;;
13584;SDS011;6863;48.402;9.994;2024-01-10T14:19:25;31.50;;;28.10;;
13584;SDS011;6863;48.402;9.994;2024-01-10T14:21:51;31.90;;;27.65;;
13584;SDS011;6863;48.402;9.994;2024-01-10T14:24:17;31.55;;;28.05;;
13584;SDS011;6863;48.402;9.994;2024-01-10T14:26:42;30.85;;;26.88;;
13584;SDS011;6863;48.402;9.994;2024-01-10T14:29:08;30.83;;;27.30;;
13584;SDS011;6863;48.402;9.994;2024-01-10T14:31:35;30.87;;;27.33;;
13584;SDS011;6863;48.402;9.994;2024-01-10T14:34:01;32.33;;;27.03;;
13584;SDS011;6863;48.402;9.994;2024-01-10T14:36:27;31.17;;;27.35;;
13584;SDS011;6863;48.402;9.994;2024-01-10T14:38:52;31.55;;;27.05;;
13584;SDS011;6863;48.402;9.994;2024-01-10T14:41:20;32.97;;;27.02;;
13584;SDS011;6863;48.402;9.994;2024-01-10T14:43:45;29.55;;;25.67;;
13584;SDS011;6863;48.402;9.994;2024-01-10T14:46:11;31.85;;;27.15;;
13584;SDS011;6863;48.402;9.994;2024-01-10T14:48:36;33.20;;;26.73;;
13584;SDS011;6863;48.402;9.994;2024-01-10T14:51:02;30.70;;;26.20;;